sensor_id;sensor_type;location;lat;lon;timestamp;P1;durP1;ratioP1;P2;durP2;ratioP2
64598;SDS011;51008;51.504;11.548;2023-01-10T00:00:08;7.63;;;4.13;;
64598;SDS011;51008;51.504;11.548;2023-01-10T00:05:09;8.05;;;3.95;;
64598;SDS011;51008;51.504;11.548;2023-01-10T00:10:10;11.63;;;4.47;;
64598;SDS011;51008;51.504;11.548;2023-01-10T00:15:12;10.82;;;4.43;;
64598;SDS011;51008;51.504;11.548;2023-01-10T00:20:13;8.25;;;4.13;;
64598;SDS011;51008;51.504;11.548;2023-01-10T00:25:14;7.65;;;3.70;;
64598;SDS011;51008;51.504;11.548;2023-01-10T00:30:16;9.85;;;4.25;;
64598;SDS011;51008;51.504;11.548;2023-01-10T00:35:17;6.97;;;3.75;;
64598;SDS011;51008;51.504;11.548;2023-01-10T00:40:18;9.70;;;4.38;;
64598;SDS011;51008;51.504;11.548;2023-01-10T00:45:19;10.05;;;4.70;;
64598;SDS011;51008;51.504;11.548;2023-01-10T00:50:20;12.30;;;4.40;;
64598;SDS011;51008;51.504;11.548;2023-01-10T00:55:21;8.02;;;4.13;;
64598;SDS011;51008;51.504;11.548;2023-01-10T01:00:22;14.73;;;4.80;;
64598;SDS011;51008;51.504;11.548;2023-01-10T01:05:23;10.80;;;4.15;;
64598;SDS011;51008;51.504;11.548;2023-01-10T01:10:24;12.35;;;4.60;;
64598;SDS011;51008;51.504;11.548;2023-01-10T01:15:25;13.15;;;5.05;;
64598;SDS011;51008;51.504;11.548;2023-01-10T01:20:27;8.40;;;4.78;;
64598;SDS011;51008;51.504;11.548;2023-01-10T01:25:28;11.20;;;4.43;;
64598;SDS011;51008;51.504;11.548;2023-01-10T01:30:29;10.90;;;4.43;;
64598;SDS011;51008;51.504;11.548;2023-01-10T01:35:30;9.45;;;5.18;;
64598;SDS011;51008;51.504;11.548;2023-01-10T01:40:31;11.63;;;5.55;;
64598;SDS011;51008;51.504;11.548;2023-01-10T01:45:33;12.98;;;5.22;;
64598;SDS011;51008;51.504;11.548;2023-01-10T01:55:43;11.77;;;5.40;;
64598;SDS011;51008;51.504;11.548;2023-01-10T02:00:46;12.38;;;5.60;;
64598;SDS011;51008;51.504;11.548;2023-01-10T02:05:47;11.20;;;5.80;;
64598;SDS011;51008;51.504;11.548;2023-01-10T02:10:57;10.73;;;5.57;;
64598;SDS011;51008;51.504;11.548;2023-01-10T02:16:04;11.68;;;5.30;;
64598;SDS011;51008;51.504;11.548;2023-01-10T02:21:17;18.10;;;6.50;;
64598;SDS011;51008;51.504;11.548;2023-01-10T02:37:36;17.23;;;6.70;;
64598;SDS011;51008;51.504;11.548;2023-01-10T02:43:18;15.20;;;6.55;;
64598;SDS011;51008;51.504;11.548;2023-01-10T02:48:22;10.90;;;6.25;;
64598;SDS011;51008;51.504;11.548;2023-01-10T02:53:27;14.57;;;6.80;;
64598;SDS011;51008;51.504;11.548;2023-01-10T02:58:39;17.23;;;7.40;;
64598;SDS011;51008;51.504;11.548;2023-01-10T03:04:12;13.15;;;7.03;;
64598;SDS011;51008;51.504;11.548;2023-01-10T03:09:15;17.08;;;6.90;;
64598;SDS011;51008;51.504;11.548;2023-01-10T03:14:31;15.35;;;7.00;;
64598;SDS011;51008;51.504;11.548;2023-01-10T03:24:58;17.95;;;6.88;;
64598;SDS011;51008;51.504;11.548;2023-01-10T03:35:08;13.13;;;7.18;;
64598;SDS011;51008;51.504;11.548;2023-01-10T03:40:14;16.40;;;7.43;;
64598;SDS011;51008;51.504;11.548;2023-01-10T03:45:20;16.60;;;7.28;;
64598;SDS011;51008;51.504;11.548;2023-01-10T03:50:30;14.63;;;6.72;;
64598;SDS011;51008;51.504;11.548;2023-01-10T03:55:32;14.98;;;7.07;;
64598;SDS011;51008;51.504;11.548;2023-01-10T04:00:35;14.55;;;7.30;;
64598;SDS011;51008;51.504;11.548;2023-01-10T04:05:36;17.75;;;7.28;;
64598;SDS011;51008;51.504;11.548;2023-01-10T04:10:37;15.73;;;7.22;;
64598;SDS011;51008;51.504;11.548;2023-01-10T04:15:38;23.35;;;7.57;;
64598;SDS011;51008;51.504;11.548;2023-01-10T04:20:39;19.05;;;8.02;;
64598;SDS011;51008;51.504;11.548;2023-01-10T04:25:40;16.25;;;7.72;;
64598;SDS011;51008;51.504;11.548;2023-01-10T04:30:44;17.65;;;8.55;;
64598;SDS011;51008;51.504;11.548;2023-01-10T04:35:48;14.83;;;7.17;;
64598;SDS011;51008;51.504;11.548;2023-01-10T04:40:54;15.30;;;7.43;;
64598;SDS011;51008;51.504;11.548;2023-01-10T04:45:56;14.88;;;7.82;;
64598;SDS011;51008;51.504;11.548;2023-01-10T04:50:57;15.20;;;7.50;;
64598;SDS011;51008;51.504;11.548;2023-01-10T04:56:02;14.63;;;7.60;;
64598;SDS011;51008;51.504;11.548;2023-01-10T05:01:08;15.85;;;7.57;;
64598;SDS011;51008;51.504;11.548;2023-01-10T05:06:10;13.32;;;7.15;;
64598;SDS011;51008;51.504;11.548;2023-01-10T05:11:11;13.88;;;6.80;;
64598;SDS011;51008;51.504;11.548;2023-01-10T05:16:12;11.90;;;6.45;;
64598;SDS011;51008;51.504;11.548;2023-01-10T05:21:13;13.70;;;6.30;;
64598;SDS011;51008;51.504;11.548;2023-01-10T05:26:15;11.38;;;6.38;;
64598;SDS011;51008;51.504;11.548;2023-01-10T05:31:18;15.80;;;8.73;;
64598;SDS011;51008;51.504;11.548;2023-01-10T05:36:19;12.95;;;5.63;;
64598;SDS011;51008;51.504;11.548;2023-01-10T05:41:20;10.68;;;5.32;;
64598;SDS011;51008;51.504;11.548;2023-01-10T05:46:21;9.50;;;5.35;;
64598;SDS011;51008;51.504;11.548;2023-01-10T05:51:22;12.65;;;4.60;;
64598;SDS011;51008;51.504;11.548;2023-01-10T05:56:24;9.02;;;4.28;;
64598;SDS011;51008;51.504;11.548;2023-01-10T06:01:26;9.13;;;3.83;;
64598;SDS011;51008;51.504;11.548;2023-01-10T06:06:27;11.60;;;3.70;;
64598;SDS011;51008;51.504;11.548;2023-01-10T06:11:28;11.27;;;3.65;;
64598;SDS011;51008;51.504;11.548;2023-01-10T06:16:29;10.93;;;3.17;;
64598;SDS011;51008;51.504;11.548;2023-01-10T06:21:30;11.05;;;3.17;;
64598;SDS011;51008;51.504;11.548;2023-01-10T06:26:31;7.53;;;3.35;;
64598;SDS011;51008;51.504;11.548;2023-01-10T06:31:32;14.18;;;9.25;;
64598;SDS011;51008;51.504;11.548;2023-01-10T06:36:33;10.63;;;3.25;;
64598;SDS011;51008;51.504;11.548;2023-01-10T06:41:34;7.43;;;2.70;;
64598;SDS011;51008;51.504;11.548;2023-01-10T06:46:35;5.32;;;2.60;;
64598;SDS011;51008;51.504;11.548;2023-01-10T06:51:36;6.53;;;2.50;;
64598;SDS011;51008;51.504;11.548;2023-01-10T06:56:37;10.65;;;3.03;;
64598;SDS011;51008;51.504;11.548;2023-01-10T07:01:37;9.27;;;2.75;;
64598;SDS011;51008;51.504;11.548;2023-01-10T07:06:38;4.70;;;1.98;;
64598;SDS011;51008;51.504;11.548;2023-01-10T07:11:40;7.78;;;2.15;;
64598;SDS011;51008;51.504;11.548;2023-01-10T07:16:41;3.60;;;1.73;;
64598;SDS011;51008;51.504;11.548;2023-01-10T07:21:42;6.97;;;2.17;;
64598;SDS011;51008;51.504;11.548;2023-01-10T07:26:43;6.35;;;1.80;;
64598;SDS011;51008;51.504;11.548;2023-01-10T07:31:44;8.07;;;2.25;;
64598;SDS011;51008;51.504;11.548;2023-01-10T07:36:45;11.93;;;2.92;;
64598;SDS011;51008;51.504;11.548;2023-01-10T07:41:46;8.35;;;2.70;;
64598;SDS011;51008;51.504;11.548;2023-01-10T07:46:49;13.65;;;2.88;;
64598;SDS011;51008;51.504;11.548;2023-01-10T07:51:50;9.43;;;3.60;;
64598;SDS011;51008;51.504;11.548;2023-01-10T07:56:51;11.20;;;4.13;;
64598;SDS011;51008;51.504;11.548;2023-01-10T08:01:52;13.00;;;4.57;;
64598;SDS011;51008;51.504;11.548;2023-01-10T08:06:53;14.75;;;5.53;;
64598;SDS011;51008;51.504;11.548;2023-01-10T08:11:54;16.40;;;5.55;;
64598;SDS011;51008;51.504;11.548;2023-01-10T08:16:55;17.80;;;6.65;;
64598;SDS011;51008;51.504;11.548;2023-01-10T08:21:56;18.30;;;6.28;;
64598;SDS011;51008;51.504;11.548;2023-01-10T08:26:57;18.42;;;5.72;;
64598;SDS011;51008;51.504;11.548;2023-01-10T08:31:58;10.70;;;5.30;;
64598;SDS011;51008;51.504;11.548;2023-01-10T08:36:59;14.75;;;5.97;;
64598;SDS011;51008;51.504;11.548;2023-01-10T08:42:00;16.63;;;6.53;;
64598;SDS011;51008;51.504;11.548;2023-01-10T08:47:01;16.52;;;6.07;;
64598;SDS011;51008;51.504;11.548;2023-01-10T08:52:02;19.25;;;5.28;;
64598;SDS011;51008;51.504;11.548;2023-01-10T08:57:03;14.68;;;5.22;;
64598;SDS011;51008;51.504;11.548;2023-01-10T09:02:05;11.65;;;4.28;;
64598;SDS011;51008;51.504;11.548;2023-01-10T09:07:06;12.95;;;5.00;;
64598;SDS011;51008;51.504;11.548;2023-01-10T09:12:07;17.95;;;5.78;;
64598;SDS011;51008;51.504;11.548;2023-01-10T09:17:08;16.83;;;4.95;;
64598;SDS011;51008;51.504;11.548;2023-01-10T09:22:11;13.68;;;4.85;;
64598;SDS011;51008;51.504;11.548;2023-01-10T09:27:12;15.60;;;4.07;;
64598;SDS011;51008;51.504;11.548;2023-01-10T09:32:13;13.60;;;4.60;;
64598;SDS011;51008;51.504;11.548;2023-01-10T09:37:14;11.00;;;4.00;;
64598;SDS011;51008;51.504;11.548;2023-01-10T09:42:51;18.10;;;6.32;;
64598;SDS011;51008;51.504;11.548;2023-01-10T09:48:03;12.98;;;4.07;;
64598;SDS011;51008;51.504;11.548;2023-01-10T09:53:10;12.07;;;3.58;;
64598;SDS011;51008;51.504;11.548;2023-01-10T09:58:16;11.95;;;3.97;;
64598;SDS011;51008;51.504;11.548;2023-01-10T10:08:48;10.25;;;3.78;;
64598;SDS011;51008;51.504;11.548;2023-01-10T10:13:54;12.02;;;3.70;;
64598;SDS011;51008;51.504;11.548;2023-01-10T10:24:38;10.80;;;3.33;;
64598;SDS011;51008;51.504;11.548;2023-01-10T10:35:07;11.02;;;3.53;;
64598;SDS011;51008;51.504;11.548;2023-01-10T10:40:22;10.73;;;2.95;;
64598;SDS011;51008;51.504;11.548;2023-01-10T10:45:28;17.05;;;3.75;;
64598;SDS011;51008;51.504;11.548;2023-01-10T10:50:40;10.10;;;3.20;;
64598;SDS011;51008;51.504;11.548;2023-01-10T10:55:49;11.13;;;2.83;;
64598;SDS011;51008;51.504;11.548;2023-01-10T11:00:51;9.02;;;3.05;;
64598;SDS011;51008;51.504;11.548;2023-01-10T11:05:52;11.32;;;3.13;;
64598;SDS011;51008;51.504;11.548;2023-01-10T11:10:54;8.80;;;2.88;;
64598;SDS011;51008;51.504;11.548;2023-01-10T11:15:58;7.20;;;3.08;;
64598;SDS011;51008;51.504;11.548;2023-01-10T11:21:12;9.60;;;2.50;;
64598;SDS011;51008;51.504;11.548;2023-01-10T11:31:29;8.98;;;2.88;;
64598;SDS011;51008;51.504;11.548;2023-01-10T11:36:50;12.93;;;3.67;;
64598;SDS011;51008;51.504;11.548;2023-01-10T11:41:54;14.15;;;3.17;;
64598;SDS011;51008;51.504;11.548;2023-01-10T11:46:56;10.15;;;3.30;;
64598;SDS011;51008;51.504;11.548;2023-01-10T11:52:19;18.80;;;6.80;;
64598;SDS011;51008;51.504;11.548;2023-01-10T11:57:24;14.20;;;3.65;;
64598;SDS011;51008;51.504;11.548;2023-01-10T12:02:32;10.10;;;3.53;;
64598;SDS011;51008;51.504;11.548;2023-01-10T12:13:15;14.20;;;4.40;;
64598;SDS011;51008;51.504;11.548;2023-01-10T12:18:16;12.98;;;4.00;;
64598;SDS011;51008;51.504;11.548;2023-01-10T12:23:19;12.57;;;4.10;;
64598;SDS011;51008;51.504;11.548;2023-01-10T12:28:26;13.15;;;4.32;;
64598;SDS011;51008;51.504;11.548;2023-01-10T12:33:32;12.52;;;4.72;;
64598;SDS011;51008;51.504;11.548;2023-01-10T12:38:54;16.80;;;4.30;;
64598;SDS011;51008;51.504;11.548;2023-01-10T12:44:03;14.68;;;4.80;;
64598;SDS011;51008;51.504;11.548;2023-01-10T12:49:12;14.18;;;4.55;;
64598;SDS011;51008;51.504;11.548;2023-01-10T12:54:18;11.40;;;4.53;;
64598;SDS011;51008;51.504;11.548;2023-01-10T12:59:24;15.25;;;4.15;;
64598;SDS011;51008;51.504;11.548;2023-01-10T13:04:29;14.45;;;4.15;;
64598;SDS011;51008;51.504;11.548;2023-01-10T13:09:33;13.32;;;4.53;;
64598;SDS011;51008;51.504;11.548;2023-01-10T13:14:38;12.30;;;3.83;;
64598;SDS011;51008;51.504;11.548;2023-01-10T13:19:42;13.63;;;4.00;;
64598;SDS011;51008;51.504;11.548;2023-01-10T13:24:53;10.73;;;3.72;;
64598;SDS011;51008;51.504;11.548;2023-01-10T13:29:58;12.13;;;3.83;;
64598;SDS011;51008;51.504;11.548;2023-01-10T13:35:13;14.43;;;3.88;;
64598;SDS011;51008;51.504;11.548;2023-01-10T13:40:21;12.40;;;3.50;;
64598;SDS011;51008;51.504;11.548;2023-01-10T13:45:26;14.57;;;3.35;;
64598;SDS011;51008;51.504;11.548;2023-01-10T13:55:32;15.85;;;3.33;;
64598;SDS011;51008;51.504;11.548;2023-01-10T14:00:56;9.95;;;2.78;;
64598;SDS011;51008;51.504;11.548;2023-01-10T14:06:00;15.55;;;3.55;;
64598;SDS011;51008;51.504;11.548;2023-01-10T14:11:08;14.98;;;2.47;;
64598;SDS011;51008;51.504;11.548;2023-01-10T14:16:32;12.77;;;2.65;;
64598;SDS011;51008;51.504;11.548;2023-01-10T14:21:38;10.65;;;2.80;;
64598;SDS011;51008;51.504;11.548;2023-01-10T14:26:42;12.07;;;2.65;;
64598;SDS011;51008;51.504;11.548;2023-01-10T14:31:44;12.30;;;2.30;;
64598;SDS011;51008;51.504;11.548;2023-01-10T14:37:29;12.48;;;2.55;;
64598;SDS011;51008;51.504;11.548;2023-01-10T14:42:18;13.13;;;2.88;;
64598;SDS011;51008;51.504;11.548;2023-01-10T14:52:34;16.13;;;2.83;;
64598;SDS011;51008;51.504;11.548;2023-01-10T14:57:35;15.88;;;2.40;;
64598;SDS011;51008;51.504;11.548;2023-01-10T15:02:36;13.13;;;2.38;;
64598;SDS011;51008;51.504;11.548;2023-01-10T15:07:42;11.75;;;2.33;;
64598;SDS011;51008;51.504;11.548;2023-01-10T15:12:43;11.48;;;2.28;;
64598;SDS011;51008;51.504;11.548;2023-01-10T15:17:45;16.35;;;2.65;;
64598;SDS011;51008;51.504;11.548;2023-01-10T15:22:57;9.00;;;1.95;;
64598;SDS011;51008;51.504;11.548;2023-01-10T15:27:59;12.25;;;2.17;;
64598;SDS011;51008;51.504;11.548;2023-01-10T15:33:02;13.27;;;2.28;;
64598;SDS011;51008;51.504;11.548;2023-01-10T15:38:15;10.30;;;2.10;;
64598;SDS011;51008;51.504;11.548;2023-01-10T15:43:22;9.13;;;2.25;;
64598;SDS011;51008;51.504;11.548;2023-01-10T15:48:33;13.48;;;2.05;;
64598;SDS011;51008;51.504;11.548;2023-01-10T15:53:55;9.65;;;1.88;;
64598;SDS011;51008;51.504;11.548;2023-01-10T15:59:04;14.00;;;2.78;;
64598;SDS011;51008;51.504;11.548;2023-01-10T16:04:21;10.73;;;2.15;;
64598;SDS011;51008;51.504;11.548;2023-01-10T16:09:23;14.57;;;2.42;;
64598;SDS011;51008;51.504;11.548;2023-01-10T16:14:23;15.48;;;2.33;;
64598;SDS011;51008;51.504;11.548;2023-01-10T16:19:24;14.82;;;2.47;;
64598;SDS011;51008;51.504;11.548;2023-01-10T16:24:27;12.60;;;2.28;;
64598;SDS011;51008;51.504;11.548;2023-01-10T16:29:30;12.85;;;2.30;;
64598;SDS011;51008;51.504;11.548;2023-01-10T16:34:32;9.20;;;1.90;;
64598;SDS011;51008;51.504;11.548;2023-01-10T16:39:33;13.27;;;2.45;;
64598;SDS011;51008;51.504;11.548;2023-01-10T16:44:34;10.95;;;2.20;;
64598;SDS011;51008;51.504;11.548;2023-01-10T16:49:35;15.23;;;2.92;;
64598;SDS011;51008;51.504;11.548;2023-01-10T16:54:37;9.70;;;2.65;;
64598;SDS011;51008;51.504;11.548;2023-01-10T16:59:38;8.73;;;2.20;;
64598;SDS011;51008;51.504;11.548;2023-01-10T17:04:38;14.73;;;2.50;;
64598;SDS011;51008;51.504;11.548;2023-01-10T17:09:40;15.60;;;2.58;;
64598;SDS011;51008;51.504;11.548;2023-01-10T17:14:40;14.20;;;2.20;;
64598;SDS011;51008;51.504;11.548;2023-01-10T17:19:42;13.35;;;2.75;;
64598;SDS011;51008;51.504;11.548;2023-01-10T17:24:42;12.82;;;2.42;;
64598;SDS011;51008;51.504;11.548;2023-01-10T17:29:43;9.77;;;2.95;;
64598;SDS011;51008;51.504;11.548;2023-01-10T17:34:44;15.90;;;2.35;;
64598;SDS011;51008;51.504;11.548;2023-01-10T17:39:45;12.82;;;3.05;;
64598;SDS011;51008;51.504;11.548;2023-01-10T17:44:48;12.32;;;2.78;;
64598;SDS011;51008;51.504;11.548;2023-01-10T17:49:49;14.02;;;2.75;;
64598;SDS011;51008;51.504;11.548;2023-01-10T17:54:49;15.43;;;2.70;;
64598;SDS011;51008;51.504;11.548;2023-01-10T17:59:52;13.57;;;2.72;;
64598;SDS011;51008;51.504;11.548;2023-01-10T18:04:55;11.90;;;2.60;;
64598;SDS011;51008;51.504;11.548;2023-01-10T18:09:56;12.70;;;2.65;;
64598;SDS011;51008;51.504;11.548;2023-01-10T18:14:57;11.63;;;2.60;;
64598;SDS011;51008;51.504;11.548;2023-01-10T18:19:58;9.90;;;2.22;;
64598;SDS011;51008;51.504;11.548;2023-01-10T18:24:59;12.02;;;2.80;;
64598;SDS011;51008;51.504;11.548;2023-01-10T18:30:00;16.27;;;2.60;;
64598;SDS011;51008;51.504;11.548;2023-01-10T18:35:01;18.20;;;2.90;;
64598;SDS011;51008;51.504;11.548;2023-01-10T18:40:02;13.45;;;3.05;;
64598;SDS011;51008;51.504;11.548;2023-01-10T18:45:04;14.70;;;2.90;;
64598;SDS011;51008;51.504;11.548;2023-01-10T18:50:06;14.02;;;3.00;;
64598;SDS011;51008;51.504;11.548;2023-01-10T18:55:07;16.60;;;3.42;;
64598;SDS011;51008;51.504;11.548;2023-01-10T19:00:09;8.50;;;2.35;;
64598;SDS011;51008;51.504;11.548;2023-01-10T19:05:10;6.75;;;2.22;;
64598;SDS011;51008;51.504;11.548;2023-01-10T19:10:11;12.88;;;2.63;;
64598;SDS011;51008;51.504;11.548;2023-01-10T19:15:12;10.38;;;2.35;;
64598;SDS011;51008;51.504;11.548;2023-01-10T19:20:13;13.88;;;2.67;;
64598;SDS011;51008;51.504;11.548;2023-01-10T19:25:14;13.02;;;2.67;;
64598;SDS011;51008;51.504;11.548;2023-01-10T19:30:15;13.98;;;2.40;;
64598;SDS011;51008;51.504;11.548;2023-01-10T19:35:17;8.07;;;2.22;;
64598;SDS011;51008;51.504;11.548;2023-01-10T19:40:21;9.10;;;2.17;;
64598;SDS011;51008;51.504;11.548;2023-01-10T19:45:22;13.32;;;2.65;;
64598;SDS011;51008;51.504;11.548;2023-01-10T19:50:22;13.77;;;2.58;;
64598;SDS011;51008;51.504;11.548;2023-01-10T19:55:23;10.93;;;2.58;;
64598;SDS011;51008;51.504;11.548;2023-01-10T20:00:24;16.88;;;2.88;;
64598;SDS011;51008;51.504;11.548;2023-01-10T20:05:25;13.15;;;3.15;;
64598;SDS011;51008;51.504;11.548;2023-01-10T20:10:26;16.75;;;3.08;;
64598;SDS011;51008;51.504;11.548;2023-01-10T20:15:27;13.27;;;2.30;;
64598;SDS011;51008;51.504;11.548;2023-01-10T20:20:28;16.42;;;2.90;;
64598;SDS011;51008;51.504;11.548;2023-01-10T20:25:29;16.15;;;2.70;;
64598;SDS011;51008;51.504;11.548;2023-01-10T20:30:30;21.42;;;3.03;;
64598;SDS011;51008;51.504;11.548;2023-01-10T20:35:31;21.25;;;3.38;;
64598;SDS011;51008;51.504;11.548;2023-01-10T20:40:32;11.00;;;2.50;;
64598;SDS011;51008;51.504;11.548;2023-01-10T20:45:33;15.48;;;2.80;;
64598;SDS011;51008;51.504;11.548;2023-01-10T20:50:34;13.40;;;2.53;;
64598;SDS011;51008;51.504;11.548;2023-01-10T20:55:35;11.82;;;2.63;;
64598;SDS011;51008;51.504;11.548;2023-01-10T21:00:37;13.70;;;3.03;;
64598;SDS011;51008;51.504;11.548;2023-01-10T21:05:38;18.77;;;3.38;;
64598;SDS011;51008;51.504;11.548;2023-01-10T21:10:41;13.23;;;3.03;;
64598;SDS011;51008;51.504;11.548;2023-01-10T21:15:43;13.33;;;2.53;;
64598;SDS011;51008;51.504;11.548;2023-01-10T21:20:45;15.88;;;3.30;;
64598;SDS011;51008;51.504;11.548;2023-01-10T21:25:47;14.70;;;2.85;;
64598;SDS011;51008;51.504;11.548;2023-01-10T21:30:48;15.20;;;2.60;;
64598;SDS011;51008;51.504;11.548;2023-01-10T21:35:49;8.95;;;2.75;;
64598;SDS011;51008;51.504;11.548;2023-01-10T21:40:55;15.07;;;2.20;;
64598;SDS011;51008;51.504;11.548;2023-01-10T21:45:57;10.27;;;2.55;;
64598;SDS011;51008;51.504;11.548;2023-01-10T21:50:59;16.15;;;3.28;;
64598;SDS011;51008;51.504;11.548;2023-01-10T21:56:00;10.15;;;2.30;;
64598;SDS011;51008;51.504;11.548;2023-01-10T22:01:01;11.45;;;2.15;;
64598;SDS011;51008;51.504;11.548;2023-01-10T22:06:02;11.60;;;2.08;;
64598;SDS011;51008;51.504;11.548;2023-01-10T22:11:03;13.52;;;2.40;;
64598;SDS011;51008;51.504;11.548;2023-01-10T22:16:04;13.50;;;2.63;;
64598;SDS011;51008;51.504;11.548;2023-01-10T22:21:05;13.45;;;2.92;;
64598;SDS011;51008;51.504;11.548;2023-01-10T22:26:07;17.80;;;3.08;;
64598;SDS011;51008;51.504;11.548;2023-01-10T22:31:10;19.13;;;2.83;;
64598;SDS011;51008;51.504;11.548;2023-01-10T22:36:12;10.13;;;2.20;;
64598;SDS011;51008;51.504;11.548;2023-01-10T22:41:16;11.32;;;2.20;;
64598;SDS011;51008;51.504;11.548;2023-01-10T22:46:19;12.02;;;2.17;;
64598;SDS011;51008;51.504;11.548;2023-01-10T22:51:20;9.90;;;2.35;;
64598;SDS011;51008;51.504;11.548;2023-01-10T22:56:22;13.15;;;2.28;;
64598;SDS011;51008;51.504;11.548;2023-01-10T23:01:23;12.18;;;2.45;;
64598;SDS011;51008;51.504;11.548;2023-01-10T23:06:25;7.35;;;2.00;;
64598;SDS011;51008;51.504;11.548;2023-01-10T23:11:26;7.95;;;1.92;;
64598;SDS011;51008;51.504;11.548;2023-01-10T23:16:27;4.13;;;1.48;;
64598;SDS011;51008;51.504;11.548;2023-01-10T23:21:28;8.80;;;1.80;;
64598;SDS011;51008;51.504;11.548;2023-01-10T23:26:29;9.82;;;2.20;;
64598;SDS011;51008;51.504;11.548;2023-01-10T23:31:30;10.05;;;2.10;;
64598;SDS011;51008;51.504;11.548;2023-01-10T23:36:31;6.63;;;1.70;;
64598;SDS011;51008;51.504;11.548;2023-01-10T23:41:32;6.60;;;1.42;;
64598;SDS011;51008;51.504;11.548;2023-01-10T23:46:33;8.05;;;1.70;;
64598;SDS011;51008;51.504;11.548;2023-01-10T23:51:34;12.25;;;2.35;;
64598;SDS011;51008;51.504;11.548;2023-01-10T23:56:34;3.92;;;1.90;;
